sensor_id;sensor_type;location;lat;lon;timestamp;P1;durP1;ratioP1;P2;durP2;ratioP2
22881;SDS011;11608;50.894;5.296;2022-11-20T00:01:06;41.77;;;37.67;;
22881;SDS011;11608;50.894;5.296;2022-11-20T00:03:32;42.07;;;38.10;;
22881;SDS011;11608;50.894;5.296;2022-11-20T00:05:59;44.17;;;39.83;;
22881;SDS011;11608;50.894;5.296;2022-11-20T00:08:25;42.23;;;38.20;;
22881;SDS011;11608;50.894;5.296;2022-11-20T00:10:51;41.07;;;37.00;;
22881;SDS011;11608;50.894;5.296;2022-11-20T00:13:17;43.80;;;39.50;;
22881;SDS011;11608;50.894;5.296;2022-11-20T00:15:43;43.03;;;38.67;;
22881;SDS011;11608;50.894;5.296;2022-11-20T00:18:09;44.20;;;40.00;;
22881;SDS011;11608;50.894;5.296;2022-11-20T00:20:35;42.93;;;38.87;;
22881;SDS011;11608;50.894;5.296;2022-11-20T00:23:01;44.67;;;40.17;;
22881;SDS011;11608;50.894;5.296;2022-11-20T00:25:27;43.77;;;39.60;;
22881;SDS011;11608;50.894;5.296;2022-11-20T00:27:53;43.00;;;38.90;;
22881;SDS011;11608;50.894;5.296;2022-11-20T00:30:19;43.17;;;38.87;;
22881;SDS011;11608;50.894;5.296;2022-11-20T00:32:45;45.00;;;40.23;;
22881;SDS011;11608;50.894;5.296;2022-11-20T00:35:11;45.53;;;40.97;;
22881;SDS011;11608;50.894;5.296;2022-11-20T00:37:37;45.87;;;41.37;;
22881;SDS011;11608;50.894;5.296;2022-11-20T00:40:03;45.33;;;40.80;;
22881;SDS011;11608;50.894;5.296;2022-11-20T00:42:29;43.23;;;38.93;;
22881;SDS011;11608;50.894;5.296;2022-11-20T00:44:57;45.23;;;40.83;;
22881;SDS011;11608;50.894;5.296;2022-11-20T00:47:23;43.63;;;39.33;;
22881;SDS011;11608;50.894;5.296;2022-11-20T00:49:49;45.20;;;40.70;;
22881;SDS011;11608;50.894;5.296;2022-11-20T00:52:15;43.93;;;39.70;;
22881;SDS011;11608;50.894;5.296;2022-11-20T00:54:41;46.10;;;41.50;;
22881;SDS011;11608;50.894;5.296;2022-11-20T00:57:07;47.60;;;42.67;;
22881;SDS011;11608;50.894;5.296;2022-11-20T00:59:33;46.80;;;41.90;;
22881;SDS011;11608;50.894;5.296;2022-11-20T01:01:59;44.67;;;40.30;;
22881;SDS011;11608;50.894;5.296;2022-11-20T01:04:25;45.83;;;41.10;;
22881;SDS011;11608;50.894;5.296;2022-11-20T01:06:51;46.87;;;42.10;;
22881;SDS011;11608;50.894;5.296;2022-11-20T01:09:17;46.73;;;42.17;;
22881;SDS011;11608;50.894;5.296;2022-11-20T01:11:44;45.40;;;41.03;;
22881;SDS011;11608;50.894;5.296;2022-11-20T01:14:11;43.97;;;39.77;;
22881;SDS011;11608;50.894;5.296;2022-11-20T01:16:41;46.80;;;42.17;;
22881;SDS011;11608;50.894;5.296;2022-11-20T01:19:09;46.37;;;41.87;;
22881;SDS011;11608;50.894;5.296;2022-11-20T01:21:37;48.30;;;43.40;;
22881;SDS011;11608;50.894;5.296;2022-11-20T01:24:05;48.47;;;43.57;;
22881;SDS011;11608;50.894;5.296;2022-11-20T01:26:33;45.40;;;40.93;;
22881;SDS011;11608;50.894;5.296;2022-11-20T01:29:00;45.63;;;40.93;;
22881;SDS011;11608;50.894;5.296;2022-11-20T01:31:27;46.10;;;41.47;;
22881;SDS011;11608;50.894;5.296;2022-11-20T01:33:55;46.10;;;41.30;;
22881;SDS011;11608;50.894;5.296;2022-11-20T01:36:22;45.10;;;40.60;;
22881;SDS011;11608;50.894;5.296;2022-11-20T01:38:52;45.30;;;40.70;;
22881;SDS011;11608;50.894;5.296;2022-11-20T01:41:18;45.33;;;40.63;;
22881;SDS011;11608;50.894;5.296;2022-11-20T01:44:03;47.60;;;42.80;;
22881;SDS011;11608;50.894;5.296;2022-11-20T01:46:33;44.43;;;40.23;;
22881;SDS011;11608;50.894;5.296;2022-11-20T01:49:05;45.97;;;41.17;;
22881;SDS011;11608;50.894;5.296;2022-11-20T01:54:01;47.47;;;42.57;;
22881;SDS011;11608;50.894;5.296;2022-11-20T01:56:29;48.67;;;43.83;;
22881;SDS011;11608;50.894;5.296;2022-11-20T01:58:58;45.53;;;41.03;;
22881;SDS011;11608;50.894;5.296;2022-11-20T02:01:24;47.97;;;43.33;;
22881;SDS011;11608;50.894;5.296;2022-11-20T02:03:50;45.07;;;40.47;;
22881;SDS011;11608;50.894;5.296;2022-11-20T02:08:42;44.77;;;40.10;;
22881;SDS011;11608;50.894;5.296;2022-11-20T02:11:08;43.40;;;39.43;;
22881;SDS011;11608;50.894;5.296;2022-11-20T02:13:34;44.60;;;40.27;;
22881;SDS011;11608;50.894;5.296;2022-11-20T02:16:14;44.87;;;40.57;;
22881;SDS011;11608;50.894;5.296;2022-11-20T02:18:41;44.87;;;40.57;;
22881;SDS011;11608;50.894;5.296;2022-11-20T02:21:17;43.33;;;39.23;;
22881;SDS011;11608;50.894;5.296;2022-11-20T02:26:19;46.37;;;41.73;;
22881;SDS011;11608;50.894;5.296;2022-11-20T02:28:46;45.03;;;40.63;;
22881;SDS011;11608;50.894;5.296;2022-11-20T02:31:12;45.67;;;41.10;;
22881;SDS011;11608;50.894;5.296;2022-11-20T02:33:38;45.17;;;40.57;;
22881;SDS011;11608;50.894;5.296;2022-11-20T02:36:04;46.60;;;41.73;;
22881;SDS011;11608;50.894;5.296;2022-11-20T02:38:31;46.07;;;41.50;;
22881;SDS011;11608;50.894;5.296;2022-11-20T02:40:57;51.93;;;44.07;;
22881;SDS011;11608;50.894;5.296;2022-11-20T02:43:23;47.00;;;42.37;;
22881;SDS011;11608;50.894;5.296;2022-11-20T02:45:49;47.13;;;42.53;;
22881;SDS011;11608;50.894;5.296;2022-11-20T02:48:15;45.70;;;40.70;;
22881;SDS011;11608;50.894;5.296;2022-11-20T02:50:41;45.90;;;41.47;;
22881;SDS011;11608;50.894;5.296;2022-11-20T02:53:07;46.80;;;42.30;;
22881;SDS011;11608;50.894;5.296;2022-11-20T02:55:33;45.87;;;41.27;;
22881;SDS011;11608;50.894;5.296;2022-11-20T02:57:59;46.27;;;41.93;;
22881;SDS011;11608;50.894;5.296;2022-11-20T03:00:25;47.90;;;43.30;;
22881;SDS011;11608;50.894;5.296;2022-11-20T03:02:51;47.63;;;42.83;;
22881;SDS011;11608;50.894;5.296;2022-11-20T03:05:17;47.50;;;43.00;;
22881;SDS011;11608;50.894;5.296;2022-11-20T03:07:43;47.90;;;43.23;;
22881;SDS011;11608;50.894;5.296;2022-11-20T03:10:10;47.83;;;43.50;;
22881;SDS011;11608;50.894;5.296;2022-11-20T03:12:36;46.40;;;41.80;;
22881;SDS011;11608;50.894;5.296;2022-11-20T03:15:02;46.77;;;42.03;;
22881;SDS011;11608;50.894;5.296;2022-11-20T03:17:28;45.77;;;41.13;;
22881;SDS011;11608;50.894;5.296;2022-11-20T03:19:55;46.93;;;42.13;;
22881;SDS011;11608;50.894;5.296;2022-11-20T03:22:21;48.60;;;43.70;;
22881;SDS011;11608;50.894;5.296;2022-11-20T03:24:47;46.93;;;42.43;;
22881;SDS011;11608;50.894;5.296;2022-11-20T03:27:13;46.30;;;41.80;;
22881;SDS011;11608;50.894;5.296;2022-11-20T03:29:39;47.97;;;43.30;;
22881;SDS011;11608;50.894;5.296;2022-11-20T03:32:05;48.27;;;43.60;;
22881;SDS011;11608;50.894;5.296;2022-11-20T03:34:31;46.13;;;41.33;;
22881;SDS011;11608;50.894;5.296;2022-11-20T03:36:57;45.27;;;40.67;;
22881;SDS011;11608;50.894;5.296;2022-11-20T03:39:23;47.23;;;42.27;;
22881;SDS011;11608;50.894;5.296;2022-11-20T03:41:49;46.40;;;41.77;;
22881;SDS011;11608;50.894;5.296;2022-11-20T03:44:16;46.93;;;42.40;;
22881;SDS011;11608;50.894;5.296;2022-11-20T03:46:42;47.40;;;42.77;;
22881;SDS011;11608;50.894;5.296;2022-11-20T03:49:08;47.53;;;42.50;;
22881;SDS011;11608;50.894;5.296;2022-11-20T03:51:34;48.70;;;43.83;;
22881;SDS011;11608;50.894;5.296;2022-11-20T03:54:04;46.83;;;42.13;;
22881;SDS011;11608;50.894;5.296;2022-11-20T03:56:31;48.93;;;44.00;;
22881;SDS011;11608;50.894;5.296;2022-11-20T03:58:57;48.70;;;43.63;;
22881;SDS011;11608;50.894;5.296;2022-11-20T04:01:25;51.70;;;46.40;;
22881;SDS011;11608;50.894;5.296;2022-11-20T04:03:52;49.23;;;44.27;;
22881;SDS011;11608;50.894;5.296;2022-11-20T04:06:20;46.33;;;41.47;;
22881;SDS011;11608;50.894;5.296;2022-11-20T04:08:46;49.27;;;44.43;;
22881;SDS011;11608;50.894;5.296;2022-11-20T04:11:14;49.70;;;44.57;;
22881;SDS011;11608;50.894;5.296;2022-11-20T04:13:40;49.23;;;43.37;;
22881;SDS011;11608;50.894;5.296;2022-11-20T04:16:07;51.47;;;43.03;;
22881;SDS011;11608;50.894;5.296;2022-11-20T04:18:34;50.60;;;45.37;;
22881;SDS011;11608;50.894;5.296;2022-11-20T04:21:00;51.20;;;44.97;;
22881;SDS011;11608;50.894;5.296;2022-11-20T04:23:26;49.47;;;44.47;;
22881;SDS011;11608;50.894;5.296;2022-11-20T04:25:52;48.97;;;43.87;;
22881;SDS011;11608;50.894;5.296;2022-11-20T04:28:19;50.80;;;45.30;;
22881;SDS011;11608;50.894;5.296;2022-11-20T04:30:45;49.80;;;44.77;;
22881;SDS011;11608;50.894;5.296;2022-11-20T04:33:11;47.63;;;42.83;;
22881;SDS011;11608;50.894;5.296;2022-11-20T04:35:37;51.53;;;46.23;;
22881;SDS011;11608;50.894;5.296;2022-11-20T04:38:03;50.57;;;45.43;;
22881;SDS011;11608;50.894;5.296;2022-11-20T04:40:29;52.13;;;46.47;;
22881;SDS011;11608;50.894;5.296;2022-11-20T04:42:55;51.97;;;46.33;;
22881;SDS011;11608;50.894;5.296;2022-11-20T04:45:22;51.10;;;45.90;;
22881;SDS011;11608;50.894;5.296;2022-11-20T04:47:49;51.13;;;46.00;;
22881;SDS011;11608;50.894;5.296;2022-11-20T04:50:15;51.37;;;45.90;;
22881;SDS011;11608;50.894;5.296;2022-11-20T04:52:41;50.30;;;45.27;;
22881;SDS011;11608;50.894;5.296;2022-11-20T04:55:07;50.23;;;44.90;;
22881;SDS011;11608;50.894;5.296;2022-11-20T04:57:33;48.27;;;43.10;;
22881;SDS011;11608;50.894;5.296;2022-11-20T04:59:59;48.23;;;43.13;;
22881;SDS011;11608;50.894;5.296;2022-11-20T05:02:25;52.23;;;46.27;;
22881;SDS011;11608;50.894;5.296;2022-11-20T05:04:51;51.30;;;45.87;;
22881;SDS011;11608;50.894;5.296;2022-11-20T05:07:17;50.53;;;45.03;;
22881;SDS011;11608;50.894;5.296;2022-11-20T05:09:43;51.60;;;45.60;;
22881;SDS011;11608;50.894;5.296;2022-11-20T05:12:09;51.33;;;45.37;;
22881;SDS011;11608;50.894;5.296;2022-11-20T05:14:35;50.97;;;45.47;;
22881;SDS011;11608;50.894;5.296;2022-11-20T05:17:01;50.60;;;44.57;;
22881;SDS011;11608;50.894;5.296;2022-11-20T05:19:27;53.40;;;45.07;;
22881;SDS011;11608;50.894;5.296;2022-11-20T05:21:53;52.47;;;44.03;;
22881;SDS011;11608;50.894;5.296;2022-11-20T05:24:19;52.53;;;44.87;;
22881;SDS011;11608;50.894;5.296;2022-11-20T05:26:45;49.00;;;43.80;;
22881;SDS011;11608;50.894;5.296;2022-11-20T05:29:11;54.00;;;44.50;;
22881;SDS011;11608;50.894;5.296;2022-11-20T05:31:39;55.77;;;45.37;;
22881;SDS011;11608;50.894;5.296;2022-11-20T05:34:05;53.30;;;43.27;;
22881;SDS011;11608;50.894;5.296;2022-11-20T05:36:31;51.23;;;44.97;;
22881;SDS011;11608;50.894;5.296;2022-11-20T05:38:58;50.60;;;45.17;;
22881;SDS011;11608;50.894;5.296;2022-11-20T05:41:24;50.90;;;45.60;;
22881;SDS011;11608;50.894;5.296;2022-11-20T05:43:50;52.47;;;45.17;;
22881;SDS011;11608;50.894;5.296;2022-11-20T05:46:17;49.20;;;43.97;;
22881;SDS011;11608;50.894;5.296;2022-11-20T05:48:43;52.77;;;45.67;;
22881;SDS011;11608;50.894;5.296;2022-11-20T05:51:11;52.93;;;47.13;;
22881;SDS011;11608;50.894;5.296;2022-11-20T05:53:37;50.87;;;45.60;;
22881;SDS011;11608;50.894;5.296;2022-11-20T05:56:07;51.50;;;45.80;;
22881;SDS011;11608;50.894;5.296;2022-11-20T05:58:34;53.37;;;47.47;;
22881;SDS011;11608;50.894;5.296;2022-11-20T06:01:04;54.40;;;45.90;;
22881;SDS011;11608;50.894;5.296;2022-11-20T06:03:31;50.27;;;43.80;;
22881;SDS011;11608;50.894;5.296;2022-11-20T06:05:58;49.87;;;44.33;;
22881;SDS011;11608;50.894;5.296;2022-11-20T06:08:24;56.23;;;46.27;;
22881;SDS011;11608;50.894;5.296;2022-11-20T06:10:50;53.30;;;45.23;;
22881;SDS011;11608;50.894;5.296;2022-11-20T06:13:16;54.03;;;45.30;;
22881;SDS011;11608;50.894;5.296;2022-11-20T06:15:47;48.60;;;42.47;;
22881;SDS011;11608;50.894;5.296;2022-11-20T06:18:13;49.33;;;43.27;;
22881;SDS011;11608;50.894;5.296;2022-11-20T06:20:39;51.33;;;44.07;;
22881;SDS011;11608;50.894;5.296;2022-11-20T06:23:05;46.53;;;41.47;;
22881;SDS011;11608;50.894;5.296;2022-11-20T06:25:31;53.00;;;43.33;;
22881;SDS011;11608;50.894;5.296;2022-11-20T06:27:57;51.00;;;43.30;;
22881;SDS011;11608;50.894;5.296;2022-11-20T06:30:23;50.10;;;43.60;;
22881;SDS011;11608;50.894;5.296;2022-11-20T06:32:49;52.33;;;44.27;;
22881;SDS011;11608;50.894;5.296;2022-11-20T06:35:15;49.33;;;43.27;;
22881;SDS011;11608;50.894;5.296;2022-11-20T06:37:41;51.93;;;43.43;;
22881;SDS011;11608;50.894;5.296;2022-11-20T06:40:08;50.70;;;43.97;;
22881;SDS011;11608;50.894;5.296;2022-11-20T06:42:34;53.47;;;43.10;;
22881;SDS011;11608;50.894;5.296;2022-11-20T06:45:03;51.97;;;44.33;;
22881;SDS011;11608;50.894;5.296;2022-11-20T06:47:29;49.43;;;43.97;;
22881;SDS011;11608;50.894;5.296;2022-11-20T06:49:55;48.33;;;42.53;;
22881;SDS011;11608;50.894;5.296;2022-11-20T06:52:21;53.57;;;43.87;;
22881;SDS011;11608;50.894;5.296;2022-11-20T06:54:47;50.43;;;44.80;;
22881;SDS011;11608;50.894;5.296;2022-11-20T06:57:13;54.00;;;44.10;;
22881;SDS011;11608;50.894;5.296;2022-11-20T06:59:39;50.03;;;43.23;;
22881;SDS011;11608;50.894;5.296;2022-11-20T07:02:08;52.93;;;44.17;;
22881;SDS011;11608;50.894;5.296;2022-11-20T07:04:34;53.47;;;43.47;;
22881;SDS011;11608;50.894;5.296;2022-11-20T07:07:00;53.87;;;43.97;;
22881;SDS011;11608;50.894;5.296;2022-11-20T07:09:26;48.53;;;43.23;;
22881;SDS011;11608;50.894;5.296;2022-11-20T07:11:52;52.37;;;43.87;;
22881;SDS011;11608;50.894;5.296;2022-11-20T07:14:18;54.80;;;43.03;;
22881;SDS011;11608;50.894;5.296;2022-11-20T07:16:44;53.47;;;44.13;;
22881;SDS011;11608;50.894;5.296;2022-11-20T07:19:10;56.40;;;44.23;;
22881;SDS011;11608;50.894;5.296;2022-11-20T07:21:36;56.73;;;43.93;;
22881;SDS011;11608;50.894;5.296;2022-11-20T07:24:04;55.10;;;42.10;;
22881;SDS011;11608;50.894;5.296;2022-11-20T07:26:33;56.90;;;42.97;;
22881;SDS011;11608;50.894;5.296;2022-11-20T07:28:59;53.03;;;44.03;;
22881;SDS011;11608;50.894;5.296;2022-11-20T07:31:25;56.07;;;42.63;;
22881;SDS011;11608;50.894;5.296;2022-11-20T07:33:51;52.97;;;42.83;;
22881;SDS011;11608;50.894;5.296;2022-11-20T07:36:17;55.27;;;43.50;;
22881;SDS011;11608;50.894;5.296;2022-11-20T07:38:43;57.20;;;45.17;;
22881;SDS011;11608;50.894;5.296;2022-11-20T07:41:09;56.07;;;43.77;;
22881;SDS011;11608;50.894;5.296;2022-11-20T07:43:35;50.97;;;42.90;;
22881;SDS011;11608;50.894;5.296;2022-11-20T07:46:01;50.93;;;43.20;;
22881;SDS011;11608;50.894;5.296;2022-11-20T07:48:28;55.20;;;43.63;;
22881;SDS011;11608;50.894;5.296;2022-11-20T07:50:57;53.90;;;43.80;;
22881;SDS011;11608;50.894;5.296;2022-11-20T07:53:23;55.03;;;43.40;;
22881;SDS011;11608;50.894;5.296;2022-11-20T07:55:50;57.90;;;43.53;;
22881;SDS011;11608;50.894;5.296;2022-11-20T07:58:19;52.73;;;43.83;;
22881;SDS011;11608;50.894;5.296;2022-11-20T08:00:45;58.57;;;44.67;;
22881;SDS011;11608;50.894;5.296;2022-11-20T08:03:11;58.97;;;44.70;;
22881;SDS011;11608;50.894;5.296;2022-11-20T08:05:38;56.83;;;44.43;;
22881;SDS011;11608;50.894;5.296;2022-11-20T08:08:04;58.10;;;43.23;;
22881;SDS011;11608;50.894;5.296;2022-11-20T08:10:31;57.53;;;44.33;;
22881;SDS011;11608;50.894;5.296;2022-11-20T08:12:57;59.63;;;44.50;;
22881;SDS011;11608;50.894;5.296;2022-11-20T08:15:47;55.37;;;44.27;;
22881;SDS011;11608;50.894;5.296;2022-11-20T08:18:13;55.23;;;43.97;;
22881;SDS011;11608;50.894;5.296;2022-11-20T08:20:39;55.77;;;43.47;;
22881;SDS011;11608;50.894;5.296;2022-11-20T08:23:05;61.97;;;45.90;;
22881;SDS011;11608;50.894;5.296;2022-11-20T08:25:33;54.27;;;45.20;;
22881;SDS011;11608;50.894;5.296;2022-11-20T08:28:00;56.70;;;44.10;;
22881;SDS011;11608;50.894;5.296;2022-11-20T08:30:26;57.73;;;43.57;;
22881;SDS011;11608;50.894;5.296;2022-11-20T08:32:53;55.93;;;44.93;;
22881;SDS011;11608;50.894;5.296;2022-11-20T08:35:19;60.20;;;45.47;;
22881;SDS011;11608;50.894;5.296;2022-11-20T08:37:46;60.93;;;44.77;;
22881;SDS011;11608;50.894;5.296;2022-11-20T08:40:12;58.73;;;45.57;;
22881;SDS011;11608;50.894;5.296;2022-11-20T08:42:45;61.83;;;47.70;;
22881;SDS011;11608;50.894;5.296;2022-11-20T08:45:12;55.57;;;44.67;;
22881;SDS011;11608;50.894;5.296;2022-11-20T08:47:38;66.00;;;47.03;;
22881;SDS011;11608;50.894;5.296;2022-11-20T08:50:04;60.83;;;45.13;;
22881;SDS011;11608;50.894;5.296;2022-11-20T08:52:30;59.40;;;46.25;;
22881;SDS011;11608;50.894;5.296;2022-11-20T08:54:56;56.90;;;45.20;;
22881;SDS011;11608;50.894;5.296;2022-11-20T08:57:22;58.00;;;44.40;;
22881;SDS011;11608;50.894;5.296;2022-11-20T08:59:48;57.40;;;43.63;;
22881;SDS011;11608;50.894;5.296;2022-11-20T09:02:14;59.13;;;44.13;;
22881;SDS011;11608;50.894;5.296;2022-11-20T09:04:40;55.20;;;44.07;;
22881;SDS011;11608;50.894;5.296;2022-11-20T09:07:06;55.23;;;43.93;;
22881;SDS011;11608;50.894;5.296;2022-11-20T09:09:32;57.30;;;43.70;;
22881;SDS011;11608;50.894;5.296;2022-11-20T09:11:58;54.07;;;44.37;;
22881;SDS011;11608;50.894;5.296;2022-11-20T09:14:24;55.22;;;43.20;;
22881;SDS011;11608;50.894;5.296;2022-11-20T09:16:54;57.83;;;43.08;;
22881;SDS011;11608;50.894;5.296;2022-11-20T09:19:20;56.53;;;43.20;;
22881;SDS011;11608;50.894;5.296;2022-11-20T09:21:46;56.42;;;41.70;;
22881;SDS011;11608;50.894;5.296;2022-11-20T09:24:12;60.73;;;45.30;;
22881;SDS011;11608;50.894;5.296;2022-11-20T09:26:38;61.90;;;45.80;;
22881;SDS011;11608;50.894;5.296;2022-11-20T09:29:04;59.97;;;45.53;;
22881;SDS011;11608;50.894;5.296;2022-11-20T09:31:30;59.70;;;45.60;;
22881;SDS011;11608;50.894;5.296;2022-11-20T09:33:56;66.93;;;46.63;;
22881;SDS011;11608;50.894;5.296;2022-11-20T09:36:23;60.97;;;43.37;;
22881;SDS011;11608;50.894;5.296;2022-11-20T09:38:49;62.72;;;45.50;;
22881;SDS011;11608;50.894;5.296;2022-11-20T09:41:40;62.42;;;45.08;;
22881;SDS011;11608;50.894;5.296;2022-11-20T09:44:04;57.25;;;43.85;;
22881;SDS011;11608;50.894;5.296;2022-11-20T09:46:37;63.55;;;43.13;;
22881;SDS011;11608;50.894;5.296;2022-11-20T09:49:09;70.05;;;46.03;;
22881;SDS011;11608;50.894;5.296;2022-11-20T09:56:49;65.88;;;45.25;;
22881;SDS011;11608;50.894;5.296;2022-11-20T09:59:22;62.88;;;44.17;;
22881;SDS011;11608;50.894;5.296;2022-11-20T10:01:49;61.47;;;42.17;;
22881;SDS011;11608;50.894;5.296;2022-11-20T10:04:16;64.57;;;44.95;;
22881;SDS011;11608;50.894;5.296;2022-11-20T10:09:29;63.53;;;44.85;;
22881;SDS011;11608;50.894;5.296;2022-11-20T10:12:12;63.38;;;43.90;;
22881;SDS011;11608;50.894;5.296;2022-11-20T10:14:42;61.80;;;43.30;;
22881;SDS011;11608;50.894;5.296;2022-11-20T10:17:16;63.85;;;44.63;;
22881;SDS011;11608;50.894;5.296;2022-11-20T10:25:16;65.63;;;45.63;;
22881;SDS011;11608;50.894;5.296;2022-11-20T10:27:50;65.43;;;42.97;;
22881;SDS011;11608;50.894;5.296;2022-11-20T10:30:19;63.08;;;43.47;;
22881;SDS011;11608;50.894;5.296;2022-11-20T10:32:58;61.75;;;42.05;;
22881;SDS011;11608;50.894;5.296;2022-11-20T10:37:58;68.45;;;44.70;;
22881;SDS011;11608;50.894;5.296;2022-11-20T10:40:31;69.05;;;46.10;;
22881;SDS011;11608;50.894;5.296;2022-11-20T10:43:18;67.45;;;45.58;;
22881;SDS011;11608;50.894;5.296;2022-11-20T10:45:53;64.88;;;45.53;;
22881;SDS011;11608;50.894;5.296;2022-11-20T10:48:23;65.18;;;45.10;;
22881;SDS011;11608;50.894;5.296;2022-11-20T10:53:38;68.68;;;45.45;;
22881;SDS011;11608;50.894;5.296;2022-11-20T10:56:27;62.20;;;44.08;;
22881;SDS011;11608;50.894;5.296;2022-11-20T11:01:22;61.08;;;43.90;;
22881;SDS011;11608;50.894;5.296;2022-11-20T11:03:49;65.85;;;45.03;;
22881;SDS011;11608;50.894;5.296;2022-11-20T11:06:24;66.28;;;44.40;;
22881;SDS011;11608;50.894;5.296;2022-11-20T11:08:51;65.38;;;45.78;;
22881;SDS011;11608;50.894;5.296;2022-11-20T11:13:47;62.78;;;44.47;;
22881;SDS011;11608;50.894;5.296;2022-11-20T11:16:21;62.50;;;43.85;;
22881;SDS011;11608;50.894;5.296;2022-11-20T11:18:47;61.95;;;44.20;;
22881;SDS011;11608;50.894;5.296;2022-11-20T11:21:14;60.70;;;43.65;;
22881;SDS011;11608;50.894;5.296;2022-11-20T11:23:46;56.45;;;42.83;;
22881;SDS011;11608;50.894;5.296;2022-11-20T11:26:20;55.13;;;43.33;;
22881;SDS011;11608;50.894;5.296;2022-11-20T11:28:54;63.85;;;44.10;;
22881;SDS011;11608;50.894;5.296;2022-11-20T11:31:27;58.47;;;44.05;;
22881;SDS011;11608;50.894;5.296;2022-11-20T11:34:03;55.83;;;43.80;;
22881;SDS011;11608;50.894;5.296;2022-11-20T11:36:29;63.58;;;44.85;;
22881;SDS011;11608;50.894;5.296;2022-11-20T11:38:56;53.20;;;41.92;;
22881;SDS011;11608;50.894;5.296;2022-11-20T11:41:26;50.75;;;40.22;;
22881;SDS011;11608;50.894;5.296;2022-11-20T11:43:54;47.92;;;41.90;;
22881;SDS011;11608;50.894;5.296;2022-11-20T11:46:43;45.60;;;39.92;;
22881;SDS011;11608;50.894;5.296;2022-11-20T11:52:15;44.88;;;39.78;;
22881;SDS011;11608;50.894;5.296;2022-11-20T11:54:56;51.13;;;42.38;;
22881;SDS011;11608;50.894;5.296;2022-11-20T12:00:21;43.28;;;38.47;;
22881;SDS011;11608;50.894;5.296;2022-11-20T12:05:20;41.33;;;37.13;;
22881;SDS011;11608;50.894;5.296;2022-11-20T12:10:46;34.55;;;30.98;;
22881;SDS011;11608;50.894;5.296;2022-11-20T12:15:39;31.38;;;28.30;;
22881;SDS011;11608;50.894;5.296;2022-11-20T12:18:13;30.08;;;27.48;;
22881;SDS011;11608;50.894;5.296;2022-11-20T12:20:41;30.23;;;27.70;;
22881;SDS011;11608;50.894;5.296;2022-11-20T12:23:54;29.48;;;27.17;;
22881;SDS011;11608;50.894;5.296;2022-11-20T12:26:00;27.45;;;25.08;;
22881;SDS011;11608;50.894;5.296;2022-11-20T12:41:27;26.27;;;24.17;;
22881;SDS011;11608;50.894;5.296;2022-11-20T12:44:25;26.33;;;24.20;;
22881;SDS011;11608;50.894;5.296;2022-11-20T12:47:23;26.15;;;24.02;;
22881;SDS011;11608;50.894;5.296;2022-11-20T12:49:57;26.00;;;23.58;;
22881;SDS011;11608;50.894;5.296;2022-11-20T12:58:06;25.98;;;24.17;;
22881;SDS011;11608;50.894;5.296;2022-11-20T13:00:37;24.30;;;22.15;;
22881;SDS011;11608;50.894;5.296;2022-11-20T13:05:59;23.65;;;21.50;;
22881;SDS011;11608;50.894;5.296;2022-11-20T13:08:34;24.02;;;21.95;;
22881;SDS011;11608;50.894;5.296;2022-11-20T13:16:26;26.08;;;23.95;;
22881;SDS011;11608;50.894;5.296;2022-11-20T13:18:56;25.42;;;23.33;;
22881;SDS011;11608;50.894;5.296;2022-11-20T13:29:27;26.48;;;24.40;;
22881;SDS011;11608;50.894;5.296;2022-11-20T13:32:01;26.75;;;24.65;;
22881;SDS011;11608;50.894;5.296;2022-11-20T13:34:28;27.90;;;25.75;;
22881;SDS011;11608;50.894;5.296;2022-11-20T13:36:56;27.13;;;24.88;;
22881;SDS011;11608;50.894;5.296;2022-11-20T13:42:00;27.83;;;25.63;;
22881;SDS011;11608;50.894;5.296;2022-11-20T13:46:53;27.20;;;25.10;;
22881;SDS011;11608;50.894;5.296;2022-11-20T13:49:25;28.02;;;25.83;;
22881;SDS011;11608;50.894;5.296;2022-11-20T13:51:56;27.60;;;25.35;;
22881;SDS011;11608;50.894;5.296;2022-11-20T14:02:13;28.42;;;26.42;;
22881;SDS011;11608;50.894;5.296;2022-11-20T14:04:42;28.48;;;25.95;;
22881;SDS011;11608;50.894;5.296;2022-11-20T14:07:11;27.95;;;25.85;;
22881;SDS011;11608;50.894;5.296;2022-11-20T14:09:38;28.08;;;25.90;;
22881;SDS011;11608;50.894;5.296;2022-11-20T14:12:12;28.23;;;25.80;;
22881;SDS011;11608;50.894;5.296;2022-11-20T14:14:46;28.58;;;26.15;;
22881;SDS011;11608;50.894;5.296;2022-11-20T14:17:20;27.35;;;25.48;;
22881;SDS011;11608;50.894;5.296;2022-11-20T14:19:47;28.20;;;25.65;;
22881;SDS011;11608;50.894;5.296;2022-11-20T14:22:24;27.40;;;25.30;;
22881;SDS011;11608;50.894;5.296;2022-11-20T14:27:37;28.13;;;25.95;;
22881;SDS011;11608;50.894;5.296;2022-11-20T14:30:04;27.88;;;25.52;;
22881;SDS011;11608;50.894;5.296;2022-11-20T14:32:31;26.30;;;24.40;;
22881;SDS011;11608;50.894;5.296;2022-11-20T14:35:02;26.15;;;24.08;;
22881;SDS011;11608;50.894;5.296;2022-11-20T14:37:33;26.15;;;23.88;;
22881;SDS011;11608;50.894;5.296;2022-11-20T14:40:00;26.33;;;24.25;;
22881;SDS011;11608;50.894;5.296;2022-11-20T14:42:29;26.63;;;24.63;;
22881;SDS011;11608;50.894;5.296;2022-11-20T14:44:56;25.35;;;23.25;;
22881;SDS011;11608;50.894;5.296;2022-11-20T14:47:29;25.80;;;23.73;;
22881;SDS011;11608;50.894;5.296;2022-11-20T14:49:57;26.52;;;24.48;;
22881;SDS011;11608;50.894;5.296;2022-11-20T14:52:24;26.35;;;24.25;;
22881;SDS011;11608;50.894;5.296;2022-11-20T14:54:56;25.05;;;23.17;;
22881;SDS011;11608;50.894;5.296;2022-11-20T14:57:27;26.35;;;24.05;;
22881;SDS011;11608;50.894;5.296;2022-11-20T15:00:05;25.05;;;23.15;;
22881;SDS011;11608;50.894;5.296;2022-11-20T15:02:32;25.35;;;22.98;;
22881;SDS011;11608;50.894;5.296;2022-11-20T15:05:05;26.60;;;24.40;;
22881;SDS011;11608;50.894;5.296;2022-11-20T15:07:35;25.13;;;23.20;;
22881;SDS011;11608;50.894;5.296;2022-11-20T15:10:08;24.17;;;22.33;;
22881;SDS011;11608;50.894;5.296;2022-11-20T15:12:37;24.63;;;22.58;;
22881;SDS011;11608;50.894;5.296;2022-11-20T15:15:04;26.02;;;23.65;;
22881;SDS011;11608;50.894;5.296;2022-11-20T15:17:31;25.52;;;23.70;;
22881;SDS011;11608;50.894;5.296;2022-11-20T15:20:03;25.17;;;23.27;;
22881;SDS011;11608;50.894;5.296;2022-11-20T15:22:35;24.40;;;22.73;;
22881;SDS011;11608;50.894;5.296;2022-11-20T15:25:22;24.60;;;22.95;;
22881;SDS011;11608;50.894;5.296;2022-11-20T15:27:50;24.33;;;22.55;;
22881;SDS011;11608;50.894;5.296;2022-11-20T15:30:18;23.52;;;21.88;;
22881;SDS011;11608;50.894;5.296;2022-11-20T15:32:45;24.25;;;22.42;;
22881;SDS011;11608;50.894;5.296;2022-11-20T15:35:11;23.55;;;21.85;;
22881;SDS011;11608;50.894;5.296;2022-11-20T15:37:38;23.17;;;21.58;;
22881;SDS011;11608;50.894;5.296;2022-11-20T15:40:04;23.70;;;22.02;;
22881;SDS011;11608;50.894;5.296;2022-11-20T15:42:30;24.77;;;22.88;;
22881;SDS011;11608;50.894;5.296;2022-11-20T15:44:56;25.10;;;23.17;;
22881;SDS011;11608;50.894;5.296;2022-11-20T15:47:25;23.45;;;21.85;;
22881;SDS011;11608;50.894;5.296;2022-11-20T15:49:52;23.52;;;21.92;;
22881;SDS011;11608;50.894;5.296;2022-11-20T15:52:18;23.42;;;21.85;;
22881;SDS011;11608;50.894;5.296;2022-11-20T15:54:44;23.85;;;22.05;;
22881;SDS011;11608;50.894;5.296;2022-11-20T15:57:10;23.67;;;22.00;;
22881;SDS011;11608;50.894;5.296;2022-11-20T15:59:38;23.63;;;22.02;;
22881;SDS011;11608;50.894;5.296;2022-11-20T16:02:12;23.52;;;21.92;;